Time;durP1;ratioP1;P1;durP2;ratioP2;P2;SDS_P1;SDS_P2;PMS_P1;PMS_P2;Temp;Humidity;BMP_temperature;BMP_pressure;BME280_temperature;BME280_humidity;BME280_pressure;Samples;Min_cycle;Max_cycle;Signal;HPM_P1;HPM_P2
2022/05/25 00:00:36;;;;;;;3.60;2.17;;;19.10;43.90;;;;;;10434424;28;20227;-69
2022/05/25 00:05:39;;;;;;;2.20;2.10;;;19.10;43.50;;;;;;10435215;28;20283;-69
2022/05/25 00:10:44;;;;;;;2.30;2.10;;;19.10;43.40;;;;;;10436386;28;20217;-69
2022/05/25 00:15:47;;;;;;;2.60;2.10;;;19.00;43.70;;;;;;10430851;28;20227;-70
2022/05/25 00:20:51;;;;;;;2.17;1.70;;;19.00;43.70;;;;;;10431013;28;20316;-69
2022/05/25 00:25:56;;;;;;;2.90;2.00;;;18.90;43.70;;;;;;10436436;28;20237;-69
2022/05/25 00:30:59;;;;;;;2.33;2.23;;;18.90;44.20;;;;;;10435242;28;20319;-69
2022/05/25 00:36:03;;;;;;;4.47;2.20;;;18.90;43.70;;;;;;10433406;28;20236;-69
2022/05/25 00:41:07;;;;;;;2.43;2.23;;;18.90;43.70;;;;;;10434357;28;20308;-70
2022/05/25 00:46:16;;;;;;;1.83;1.73;;;18.90;44.30;;;;;;10437190;28;20236;-69
2022/05/25 00:51:26;;;;;;;1.80;1.70;;;18.90;44.40;;;;;;10431937;28;20350;-69
2022/05/25 00:56:33;;;;;;;2.30;2.10;;;18.80;44.30;;;;;;10433051;28;20225;-69
2022/05/25 01:01:37;;;;;;;2.80;2.00;;;18.80;44.40;;;;;;10433488;28;20596;-69
2022/05/25 01:06:54;;;;;;;3.13;2.20;;;18.80;43.90;;;;;;10436264;28;20255;-69
2022/05/25 01:12:08;;;;;;;2.10;2.00;;;18.80;44.60;;;;;;10435461;28;20233;-69
2022/05/25 01:17:22;;;;;;;2.33;2.17;;;18.80;44.30;;;;;;10429365;28;20221;-69
2022/05/25 01:22:59;;;;;;;3.90;2.20;;;18.70;44.20;;;;;;10434345;28;20229;-69
2022/05/25 01:28:14;;;;;;;3.13;2.20;;;18.70;44.20;;;;;;10429807;28;20233;-70
2022/05/25 01:33:23;;;;;;;2.27;2.07;;;18.60;44.60;;;;;;10431887;28;20220;-69
2022/05/25 01:38:36;;;;;;;2.90;2.00;;;18.60;44.50;;;;;;10432208;28;20225;-69
2022/05/25 01:43:43;;;;;;;2.30;2.20;;;18.60;44.80;;;;;;10431467;28;20220;-69
2022/05/25 01:48:49;;;;;;;2.30;2.10;;;18.60;44.40;;;;;;10430699;28;20229;-69
2022/05/25 01:53:57;;;;;;;1.93;1.83;;;18.60;44.40;;;;;;10429676;28;20236;-69
2022/05/25 01:59:03;;;;;;;2.00;1.90;;;18.60;44.70;;;;;;10432293;28;20232;-73
2022/05/25 02:04:24;;;;;;;2.67;2.20;;;18.50;44.50;;;;;;10428434;28;20221;-73
2022/05/25 02:09:58;;;;;;;2.63;2.07;;;18.50;44.70;;;;;;10430369;28;20611;-73
2022/05/25 02:15:12;;;;;;;2.43;2.23;;;18.50;45.20;;;;;;10432497;28;20705;-73
2022/05/25 02:20:24;;;;;;;2.53;2.33;;;18.50;45.20;;;;;;10426743;28;20228;-73
2022/05/25 02:25:31;;;;;;;2.63;2.43;;;18.50;45.20;;;;;;10429193;28;20229;-73
2022/05/25 02:30:46;;;;;;;2.70;2.50;;;18.50;44.60;;;;;;10431702;28;20791;-74
2022/05/25 02:35:52;;;;;;;2.30;2.10;;;18.50;44.90;;;;;;10429486;28;20231;-74
2022/05/25 02:41:06;;;;;;;3.00;2.63;;;18.50;44.80;;;;;;10432460;28;20236;-74
2022/05/25 02:46:09;;;;;;;2.33;2.20;;;18.50;45.60;;;;;;10429496;28;20574;-73
2022/05/25 02:51:14;;;;;;;2.10;2.00;;;18.50;44.90;;;;;;10432416;28;20594;-73
2022/05/25 02:56:18;;;;;;;2.30;2.20;;;18.50;44.90;;;;;;10433076;28;20252;-73
2022/05/25 03:01:21;;;;;;;2.77;2.57;;;18.50;44.80;;;;;;10426699;28;20239;-74
2022/05/25 03:06:26;;;;;;;5.17;3.07;;;18.50;44.70;;;;;;10429755;28;20242;-73
2022/05/25 03:11:29;;;;;;;2.50;2.30;;;18.50;44.70;;;;;;10429911;28;20225;-73
2022/05/25 03:16:34;;;;;;;2.90;2.60;;;18.40;44.30;;;;;;10427943;28;20236;-73
2022/05/25 03:21:39;;;;;;;2.93;2.63;;;18.40;44.60;;;;;;10427899;28;20235;-74
2022/05/25 03:26:42;;;;;;;2.60;2.40;;;18.30;44.80;;;;;;10427430;28;20233;-73
2022/05/25 03:31:45;;;;;;;2.67;2.47;;;18.30;44.60;;;;;;10431199;28;20236;-73
2022/05/25 03:36:52;;;;;;;3.17;2.50;;;18.10;44.50;;;;;;10436204;28;20794;-73
2022/05/25 03:41:58;;;;;;;2.53;2.43;;;18.30;45.00;;;;;;10437660;28;20225;-73
2022/05/25 03:47:01;;;;;;;3.20;2.90;;;18.30;44.80;;;;;;10437551;28;20232;-73
2022/05/25 03:52:07;;;;;;;3.67;2.90;;;18.30;44.60;;;;;;10432157;28;20221;-73
2022/05/25 03:57:10;;;;;;;3.00;2.80;;;18.30;44.90;;;;;;10430519;28;20225;-73
2022/05/25 04:02:14;;;;;;;3.27;2.97;;;18.20;44.50;;;;;;10434063;28;20228;-73
2022/05/25 04:07:19;;;;;;;3.13;2.93;;;18.20;44.80;;;;;;10435284;28;20646;-73
2022/05/25 04:12:22;;;;;;;3.70;3.40;;;18.10;45.00;;;;;;10434928;28;20244;-73
2022/05/25 04:17:25;;;;;;;3.00;2.80;;;18.10;44.70;;;;;;10434336;28;20235;-73
2022/05/25 04:22:32;;;;;;;3.20;2.90;;;18.10;44.70;;;;;;10434049;28;20225;-73
2022/05/25 04:27:37;;;;;;;3.17;2.87;;;18.00;44.90;;;;;;10433656;28;20237;-74
2022/05/25 04:32:41;;;;;;;3.47;2.97;;;18.00;45.00;;;;;;10433948;28;20405;-72
2022/05/25 04:37:53;;;;;;;3.67;2.70;;;17.90;45.00;;;;;;10435002;28;20702;-73
2022/05/25 04:42:58;;;;;;;2.60;2.40;;;17.90;45.10;;;;;;10429767;28;20225;-72
2022/05/25 04:48:02;;;;;;;2.27;2.17;;;17.90;44.90;;;;;;10433340;28;20673;-72
2022/05/25 04:53:08;;;;;;;2.40;2.30;;;17.90;45.20;;;;;;10430989;28;20275;-73
2022/05/25 04:58:19;;;;;;;2.60;2.40;;;17.90;45.60;;;;;;10433111;28;20236;-72
2022/05/25 05:03:24;;;;;;;2.33;2.20;;;17.90;45.90;;;;;;10432498;28;20797;-78
2022/05/25 05:08:29;;;;;;;2.63;2.47;;;18.00;45.60;;;;;;10430853;28;20225;-73
2022/05/25 05:13:32;;;;;;;3.23;2.60;;;18.00;45.80;;;;;;10432313;28;20236;-74
2022/05/25 05:18:35;;;;;;;3.37;3.10;;;18.10;45.50;;;;;;10436087;28;20217;-73
2022/05/25 05:23:41;;;;;;;2.70;2.50;;;18.10;45.30;;;;;;10433422;28;20224;-73
2022/05/25 05:28:45;;;;;;;3.13;2.30;;;18.10;45.60;;;;;;10436033;28;20229;-73
2022/05/25 05:33:48;;;;;;;2.57;2.07;;;18.00;45.20;;;;;;10433052;28;21004;-73
2022/05/25 05:38:58;;;;;;;2.00;1.90;;;18.00;45.20;;;;;;10432164;28;20701;-73
2022/05/25 05:44:02;;;;;;;1.57;1.47;;;18.00;46.00;;;;;;10428679;28;20217;-73
2022/05/25 05:49:05;;;;;;;1.50;1.40;;;18.00;45.50;;;;;;10430314;28;20232;-73
2022/05/25 05:54:11;;;;;;;3.03;1.80;;;18.00;45.30;;;;;;10429617;28;20235;-73
2022/05/25 05:59:14;;;;;;;2.17;1.73;;;18.10;45.60;;;;;;10427093;28;20236;-73
2022/05/25 06:04:17;;;;;;;3.70;1.93;;;18.10;45.20;;;;;;10430837;28;20805;-73
2022/05/25 06:09:22;;;;;;;2.00;1.80;;;18.10;45.50;;;;;;10427021;28;20235;-73
2022/05/25 06:14:25;;;;;;;2.10;2.00;;;18.20;45.70;;;;;;10425472;28;20579;-73
2022/05/25 06:19:33;;;;;;;2.70;2.50;;;18.20;45.50;;;;;;10425261;28;21142;-73
2022/05/25 06:24:40;;;;;;;2.10;1.90;;;18.20;45.50;;;;;;10427443;28;20299;-73
2022/05/25 06:29:47;;;;;;;3.00;2.27;;;18.20;45.90;;;;;;10430384;28;20232;-73
2022/05/25 06:34:51;;;;;;;2.60;2.40;;;18.20;45.80;;;;;;10431154;28;20679;-73
2022/05/25 06:39:55;;;;;;;3.17;2.17;;;18.20;45.20;;;;;;10428824;28;20232;-73
2022/05/25 06:44:59;;;;;;;2.13;2.03;;;18.20;45.50;;;;;;10434472;28;20225;-73
2022/05/25 06:50:02;;;;;;;4.23;2.30;;;18.10;45.40;;;;;;10429968;28;20228;-72
2022/05/25 06:55:08;;;;;;;2.60;2.40;;;18.10;45.20;;;;;;10433935;28;20226;-73
2022/05/25 07:00:12;;;;;;;2.50;2.30;;;18.10;45.30;;;;;;10428443;28;20598;-74
2022/05/25 07:05:15;;;;;;;3.13;2.93;;;18.00;45.10;;;;;;10428804;28;20233;-73
2022/05/25 07:10:20;;;;;;;2.93;2.63;;;18.00;45.30;;;;;;10437801;28;20313;-73
2022/05/25 07:15:24;;;;;;;5.47;4.97;;;18.00;45.60;;;;;;10437602;28;20251;-73
2022/05/25 07:20:32;;;;;;;6.37;5.87;;;18.00;45.60;;;;;;10434498;28;20228;-73
2022/05/25 07:25:37;;;;;;;6.73;6.23;;;18.00;46.00;;;;;;10431973;28;20980;-74
2022/05/25 07:30:40;;;;;;;5.53;5.03;;;18.00;46.50;;;;;;10435103;28;20228;-73
2022/05/25 07:35:43;;;;;;;10.03;9.13;;;18.10;46.00;;;;;;10435068;28;20235;-74
2022/05/25 07:40:49;;;;;;;7.77;7.07;;;18.10;46.00;;;;;;10433839;28;20227;-73
2022/05/25 07:45:53;;;;;;;5.03;4.70;;;18.10;47.10;;;;;;10430477;28;20599;-73
2022/05/25 07:50:57;;;;;;;4.13;3.83;;;18.20;46.40;;;;;;10430707;28;20649;-73
2022/05/25 07:56:03;;;;;;;3.33;3.10;;;18.20;46.70;;;;;;10433256;28;20233;-73
2022/05/25 08:01:11;;;;;;;2.80;2.57;;;18.30;46.70;;;;;;10433591;28;20304;-74
2022/05/25 08:06:15;;;;;;;2.90;2.40;;;18.30;47.00;;;;;;10432203;28;20628;-74
2022/05/25 08:11:21;;;;;;;2.10;2.00;;;18.30;46.30;;;;;;10435171;28;20323;-74
2022/05/25 08:16:24;;;;;;;2.00;1.87;;;18.40;46.50;;;;;;10435432;28;20312;-73
2022/05/25 08:21:27;;;;;;;2.13;1.90;;;18.50;46.50;;;;;;10432269;28;20909;-73
2022/05/25 08:26:50;;;;;;;2.03;1.93;;;18.50;46.20;;;;;;10430322;28;20710;-73
2022/05/25 08:31:55;;;;;;;2.13;2.03;;;18.60;46.30;;;;;;10432506;28;20232;-72
2022/05/25 08:36:58;;;;;;;3.40;2.20;;;18.70;46.30;;;;;;10433468;28;20228;-72
2022/05/25 08:42:07;;;;;;;2.27;2.07;;;18.70;45.70;;;;;;10433727;28;20225;-74
2022/05/25 08:47:13;;;;;;;2.70;2.20;;;18.80;45.60;;;;;;10433034;28;20225;-74
2022/05/25 08:52:23;;;;;;;2.40;2.20;;;18.80;45.30;;;;;;10433583;28;20229;-74
2022/05/25 08:57:33;;;;;;;2.23;2.07;;;18.80;45.80;;;;;;10433314;28;20234;-74
2022/05/25 09:02:47;;;;;;;2.30;2.10;;;18.80;46.00;;;;;;10431513;28;20227;-74
2022/05/25 09:08:00;;;;;;;2.27;2.17;;;18.90;45.60;;;;;;10430586;28;20239;-74
2022/05/25 09:13:09;;;;;;;3.97;2.00;;;19.00;45.10;;;;;;10431664;28;20244;-73
2022/05/25 09:18:15;;;;;;;2.07;1.97;;;19.10;44.40;;;;;;10431973;28;20682;-74
2022/05/25 09:23:19;;;;;;;1.90;1.80;;;19.20;44.50;;;;;;10430931;28;20342;-74
2022/05/25 09:28:30;;;;;;;2.63;2.10;;;19.20;44.50;;;;;;10428951;28;20232;-74
2022/05/25 09:33:37;;;;;;;1.93;1.83;;;19.30;44.30;;;;;;10422970;28;20923;-74
2022/05/25 09:38:46;;;;;;;1.93;1.80;;;19.40;44.00;;;;;;10420658;28;20221;-73
2022/05/25 09:43:54;;;;;;;1.90;1.80;;;19.60;43.70;;;;;;10423143;28;20221;-72
2022/05/25 09:49:02;;;;;;;2.83;1.93;;;19.70;43.40;;;;;;10416352;28;20311;-72
2022/05/25 09:54:12;;;;;;;1.70;1.60;;;19.80;43.70;;;;;;10422811;28;20225;-72
2022/05/25 09:59:27;;;;;;;1.90;1.80;;;20.00;43.30;;;;;;10424239;28;20240;-73
2022/05/25 10:04:51;;;;;;;2.10;1.67;;;20.10;42.60;;;;;;10424810;28;20231;-73
2022/05/25 10:09:58;;;;;;;1.70;1.60;;;20.20;42.50;;;;;;10426787;28;20304;-72
2022/05/25 10:15:06;;;;;;;1.60;1.50;;;20.30;43.60;;;;;;10430339;28;20221;-72
2022/05/25 10:20:23;;;;;;;1.73;1.60;;;20.40;41.80;;;;;;10428577;28;20259;-72
2022/05/25 10:25:30;;;;;;;2.10;1.70;;;20.60;41.90;;;;;;10428543;28;20259;-72
2022/05/25 10:41:41;;;;;;;1.57;0.90;;;21.30;39.70;;;;;;10430900;28;20235;-74
2022/05/25 10:46:53;;;;;;;1.20;0.90;;;21.50;37.60;;;;;;10441531;28;20220;-74
2022/05/25 10:52:01;;;;;;;1.10;1.10;;;21.50;37.80;;;;;;10434196;28;20312;-74
2022/05/25 10:57:33;;;;;;;1.50;1.03;;;21.50;37.70;;;;;;10435679;28;20239;-73
2022/05/25 11:03:16;;;;;;;1.00;0.97;;;21.60;36.80;;;;;;10434792;28;20236;-74
2022/05/25 11:08:30;;;;;;;0.97;0.90;;;21.60;38.60;;;;;;10433776;28;20240;-74
2022/05/25 11:14:01;;;;;;;2.50;1.00;;;21.70;36.90;;;;;;10434693;28;20225;-73
2022/05/25 11:19:34;;;;;;;1.40;1.10;;;21.70;38.00;;;;;;10434613;28;20231;-72
2022/05/25 11:24:57;;;;;;;1.20;1.10;;;21.80;38.10;;;;;;10432275;28;20229;-73
2022/05/25 11:30:06;;;;;;;1.57;0.80;;;21.90;37.60;;;;;;10431654;28;20721;-73
2022/05/25 11:35:44;;;;;;;1.43;1.10;;;21.90;35.60;;;;;;10429736;28;20738;-72
2022/05/25 11:41:01;;;;;;;1.63;1.17;;;21.90;36.20;;;;;;10435244;28;20248;-69
2022/05/25 11:46:14;;;;;;;0.90;0.90;;;22.00;34.10;;;;;;10429055;28;20221;-69
2022/05/25 11:51:50;;;;;;;1.17;1.00;;;21.80;34.70;;;;;;10436248;28;20221;-69
2022/05/25 11:57:02;;;;;;;1.63;1.00;;;22.00;36.20;;;;;;10432999;28;20240;-69
2022/05/25 12:02:17;;;;;;;1.47;1.00;;;22.10;35.40;;;;;;10432964;28;20694;-69
2022/05/25 12:07:36;;;;;;;0.97;0.97;;;22.10;34.90;;;;;;10432553;28;20232;-69
2022/05/25 12:12:45;;;;;;;0.90;0.90;;;22.20;34.50;;;;;;10434106;28;20228;-70
2022/05/25 12:18:09;;;;;;;0.90;0.90;;;22.20;35.60;;;;;;10434850;28;20230;-69
2022/05/25 12:23:16;;;;;;;0.90;0.90;;;22.30;33.80;;;;;;10430647;28;20232;-69
2022/05/25 12:28:24;;;;;;;0.70;0.70;;;22.30;33.20;;;;;;10431861;28;20229;-69
2022/05/25 12:33:27;;;;;;;2.60;0.90;;;22.40;32.20;;;;;;10430440;28;20240;-69
2022/05/25 12:38:33;;;;;;;0.80;0.80;;;22.40;34.40;;;;;;10431948;28;20229;-73
2022/05/25 12:43:54;;;;;;;0.67;0.67;;;22.40;34.10;;;;;;10430508;28;20229;-73
2022/05/25 12:49:00;;;;;;;1.63;0.80;;;22.50;30.20;;;;;;10432598;28;20240;-73
2022/05/25 12:54:18;;;;;;;0.93;0.90;;;22.60;33.50;;;;;;10426926;28;20305;-73
2022/05/25 12:59:37;;;;;;;0.90;0.90;;;22.60;33.00;;;;;;10428667;28;20232;-69
2022/05/25 13:04:48;;;;;;;0.90;0.90;;;22.80;33.10;;;;;;10429904;28;20231;-70
2022/05/25 13:09:52;;;;;;;0.87;0.83;;;22.90;33.70;;;;;;10425896;28;20240;-69
2022/05/25 13:14:58;;;;;;;1.67;0.90;;;23.00;32.60;;;;;;10422998;28;20261;-69
2022/05/25 13:20:06;;;;;;;0.90;0.90;;;23.10;32.60;;;;;;10432043;28;20236;-69
2022/05/25 13:25:30;;;;;;;1.07;1.00;;;23.00;33.60;;;;;;10429948;28;20228;-69
2022/05/25 13:30:50;;;;;;;0.80;0.80;;;23.00;33.20;;;;;;10429585;28;20224;-69
2022/05/25 13:35:57;;;;;;;1.27;1.10;;;23.00;31.60;;;;;;10428455;28;20231;-69
2022/05/25 13:41:11;;;;;;;1.00;0.90;;;23.10;32.50;;;;;;10428815;28;20772;-69
2022/05/25 13:46:30;;;;;;;1.80;0.90;;;23.20;30.60;;;;;;10428357;28;20732;-69
2022/05/25 13:51:35;;;;;;;0.77;0.77;;;23.10;30.90;;;;;;10427014;28;20785;-69
2022/05/25 13:56:39;;;;;;;0.80;0.80;;;23.10;32.40;;;;;;10425777;28;20311;-70
2022/05/25 14:01:43;;;;;;;2.83;0.80;;;23.10;31.70;;;;;;10430673;28;20224;-69
2022/05/25 14:06:46;;;;;;;0.97;0.93;;;23.20;32.50;;;;;;10427824;28;20225;-70
2022/05/25 14:11:52;;;;;;;0.93;0.93;;;23.30;32.00;;;;;;10431692;28;20766;-69
2022/05/25 14:16:57;;;;;;;0.70;0.70;;;23.40;31.00;;;;;;10428692;28;20232;-70
2022/05/25 14:22:05;;;;;;;1.63;1.10;;;23.50;31.70;;;;;;10428082;28;20604;-70
2022/05/25 14:27:25;;;;;;;0.90;0.90;;;23.50;30.90;;;;;;10428758;28;20221;-70
2022/05/25 14:32:30;;;;;;;1.13;0.70;;;23.60;29.80;;;;;;10424538;28;20239;-70
2022/05/25 14:37:38;;;;;;;0.90;0.90;;;23.70;30.50;;;;;;10427260;28;20229;-69
2022/05/25 14:42:53;;;;;;;1.07;0.70;;;23.70;29.70;;;;;;10427315;28;20221;-69
2022/05/25 14:48:06;;;;;;;0.97;0.90;;;23.70;29.50;;;;;;10425782;28;20227;-70
2022/05/25 14:53:12;;;;;;;0.80;0.80;;;23.70;30.00;;;;;;10427831;28;20229;-69
2022/05/25 14:58:23;;;;;;;2.60;1.10;;;23.70;29.10;;;;;;10427524;28;20648;-69
2022/05/25 15:03:33;;;;;;;0.87;0.87;;;23.70;29.20;;;;;;10426044;28;20258;-69
2022/05/25 15:08:39;;;;;;;1.10;1.00;;;23.70;29.10;;;;;;10425612;28;20221;-69
2022/05/25 15:19:04;;;;;;;0.97;0.90;;;23.80;29.20;;;;;;10423424;28;20229;-69
2022/05/25 15:24:16;;;;;;;1.20;1.10;;;23.80;29.80;;;;;;10427379;28;20300;-69
2022/05/25 15:29:29;;;;;;;1.00;1.00;;;23.70;28.60;;;;;;10427473;28;20232;-69
2022/05/25 15:34:34;;;;;;;1.03;0.90;;;23.80;29.30;;;;;;10433520;28;20654;-69
2022/05/25 15:39:39;;;;;;;0.80;0.80;;;23.80;30.00;;;;;;10434771;28;20248;-69
2022/05/25 15:44:44;;;;;;;1.23;0.80;;;23.90;29.50;;;;;;10433676;28;20213;-69
2022/05/25 15:49:47;;;;;;;1.73;0.90;;;24.00;28.90;;;;;;10431566;28;20687;-69
2022/05/25 15:54:51;;;;;;;0.80;0.80;;;24.10;29.10;;;;;;10416883;28;20362;-69
2022/05/25 15:59:56;;;;;;;0.80;0.80;;;24.20;29.90;;;;;;10427606;28;20248;-69
2022/05/25 16:05:00;;;;;;;1.07;1.00;;;24.20;28.20;;;;;;10426306;28;20238;-69
2022/05/25 16:10:04;;;;;;;0.87;0.87;;;24.20;28.30;;;;;;10422852;28;20944;-69
2022/05/25 16:15:09;;;;;;;0.90;0.90;;;24.30;28.20;;;;;;10424689;28;20232;-73
2022/05/25 16:20:14;;;;;;;1.83;1.20;;;24.10;27.30;;;;;;10422878;28;20255;-73
2022/05/25 16:25:20;;;;;;;1.10;0.73;;;24.10;28.10;;;;;;10434203;28;20229;-73
2022/05/25 16:30:25;;;;;;;1.53;1.00;;;24.10;28.10;;;;;;10435293;28;20591;-73
2022/05/25 16:35:28;;;;;;;0.80;0.80;;;24.00;28.10;;;;;;10428351;28;20224;-73
2022/05/25 16:40:31;;;;;;;1.97;1.03;;;24.00;28.10;;;;;;10431393;28;20225;-73
2022/05/25 16:45:36;;;;;;;0.90;0.90;;;24.00;28.30;;;;;;10429516;28;20228;-73
2022/05/25 16:50:39;;;;;;;0.90;0.90;;;23.90;27.90;;;;;;10432477;28;20221;-72
2022/05/25 16:55:43;;;;;;;1.00;1.00;;;23.80;28.40;;;;;;10433809;28;20327;-72
2022/05/25 17:00:47;;;;;;;0.90;0.90;;;23.80;28.40;;;;;;10433147;28;20225;-72
2022/05/25 17:05:51;;;;;;;0.90;0.90;;;23.60;28.00;;;;;;10433563;28;20741;-72
2022/05/25 17:10:57;;;;;;;0.90;0.90;;;23.60;28.70;;;;;;10434177;28;20233;-72
2022/05/25 17:16:02;;;;;;;1.37;1.10;;;23.60;28.70;;;;;;10428478;28;20236;-72
2022/05/25 17:21:06;;;;;;;1.07;0.90;;;23.70;27.80;;;;;;10425752;28;20300;-72
2022/05/25 17:26:09;;;;;;;1.90;1.00;;;23.60;28.50;;;;;;10415950;28;20229;-72
2022/05/25 17:31:14;;;;;;;3.07;1.10;;;23.60;28.50;;;;;;10416836;28;20228;-72
2022/05/25 17:41:51;;;;;;;2.50;2.30;;;23.50;28.70;;;;;;10417095;28;20228;-72
2022/05/25 17:46:58;;;;;;;5.60;5.20;;;23.60;28.90;;;;;;10417545;28;20232;-72
2022/05/25 17:52:01;;;;;;;2.17;1.80;;;23.60;28.10;;;;;;10421977;28;20235;-72
2022/05/25 17:57:06;;;;;;;75.53;68.37;;;23.60;28.50;;;;;;10423055;28;20225;-69
2022/05/25 18:02:11;;;;;;;13.27;12.07;;;23.70;28.40;;;;;;10423667;28;20294;-70
2022/05/25 18:07:17;;;;;;;7.33;5.33;;;23.70;27.80;;;;;;10423136;28;21037;-69
2022/05/25 18:12:21;;;;;;;3.00;2.80;;;23.60;27.80;;;;;;10420324;28;20224;-69
2022/05/25 18:17:28;;;;;;;1.87;1.70;;;23.50;28.20;;;;;;10422283;28;20240;-69
2022/05/25 18:22:31;;;;;;;1.70;1.60;;;23.50;27.70;;;;;;10427740;28;20252;-69
2022/05/25 18:27:41;;;;;;;3.07;2.30;;;23.40;28.20;;;;;;10431647;28;20713;-69
2022/05/25 18:32:46;;;;;;;1.60;1.10;;;23.30;28.30;;;;;;10429889;28;20221;-70
2022/05/25 18:37:49;;;;;;;2.10;1.23;;;23.30;28.20;;;;;;10421545;28;20255;-68
2022/05/25 18:42:52;;;;;;;1.50;0.93;;;23.20;28.50;;;;;;10425125;28;20326;-74
2022/05/25 18:47:57;;;;;;;2.33;1.90;;;23.20;28.50;;;;;;10418451;28;20233;-73
2022/05/25 18:53:01;;;;;;;1.13;1.00;;;23.10;28.30;;;;;;10420423;28;20239;-73
2022/05/25 18:58:05;;;;;;;1.43;1.10;;;23.10;28.20;;;;;;10410891;28;20228;-74
2022/05/25 19:03:09;;;;;;;1.87;1.20;;;22.90;28.30;;;;;;10410043;28;20607;-73
2022/05/25 19:08:13;;;;;;;2.57;1.03;;;22.70;28.30;;;;;;10416422;28;20231;-74
2022/05/25 19:13:16;;;;;;;3.90;1.03;;;22.60;28.60;;;;;;10415653;28;20633;-73
2022/05/25 19:18:21;;;;;;;1.50;1.20;;;22.40;29.00;;;;;;10417237;28;20243;-74
2022/05/25 19:23:31;;;;;;;2.50;1.20;;;22.30;29.20;;;;;;10420675;28;20236;-73
2022/05/25 19:28:35;;;;;;;0.90;0.90;;;22.20;29.30;;;;;;10416255;28;20240;-73
2022/05/25 19:33:45;;;;;;;2.20;1.10;;;22.20;29.10;;;;;;10399437;28;20771;-73
2022/05/25 19:38:51;;;;;;;2.00;0.90;;;22.20;29.10;;;;;;10415321;28;21053;-73
2022/05/25 19:43:58;;;;;;;0.90;0.90;;;22.00;29.00;;;;;;10421368;28;20434;-73
2022/05/25 19:49:03;;;;;;;1.30;1.10;;;21.80;29.20;;;;;;10419583;28;20221;-73
2022/05/25 19:54:07;;;;;;;3.00;1.10;;;21.70;29.30;;;;;;10420161;28;20254;-73
2022/05/25 19:59:10;;;;;;;1.63;1.10;;;21.50;29.40;;;;;;10421561;28;20236;-73
2022/05/25 20:04:14;;;;;;;1.30;1.20;;;21.40;29.60;;;;;;10421171;28;20224;-73
2022/05/25 20:09:18;;;;;;;1.63;1.23;;;21.20;29.70;;;;;;10417058;28;20908;-73
2022/05/25 20:14:21;;;;;;;1.73;1.33;;;21.00;29.80;;;;;;10421665;28;20244;-73
2022/05/25 20:19:26;;;;;;;2.27;1.40;;;20.80;29.90;;;;;;10415161;28;20237;-74
2022/05/25 20:24:32;;;;;;;2.30;1.47;;;20.60;30.20;;;;;;10418522;28;20243;-73
2022/05/25 20:29:36;;;;;;;1.63;1.53;;;20.40;30.30;;;;;;10418018;28;20238;-73
2022/05/25 20:34:41;;;;;;;1.43;1.10;;;20.20;30.40;;;;;;10419598;28;20259;-73
2022/05/25 20:39:47;;;;;;;1.57;1.30;;;20.10;31.20;;;;;;10427537;28;20343;-73
2022/05/25 20:44:51;;;;;;;1.50;1.20;;;19.90;31.20;;;;;;10427759;28;20217;-73
2022/05/25 20:49:57;;;;;;;1.90;1.50;;;19.80;31.30;;;;;;10434318;28;20235;-73
2022/05/25 20:55:03;;;;;;;1.30;1.20;;;19.60;31.80;;;;;;10432918;28;20751;-74
2022/05/25 21:00:10;;;;;;;1.40;1.30;;;19.60;32.00;;;;;;10432176;28;20234;-72
2022/05/25 21:05:16;;;;;;;1.40;1.30;;;19.40;32.40;;;;;;10431967;28;20231;-73
2022/05/25 21:10:20;;;;;;;1.80;1.27;;;19.30;32.70;;;;;;10433512;28;20323;-72
2022/05/25 21:15:23;;;;;;;1.57;1.40;;;19.20;32.40;;;;;;10434082;28;20229;-72
2022/05/25 21:20:28;;;;;;;4.53;1.40;;;19.10;32.70;;;;;;10431766;28;20230;-72
2022/05/25 21:25:34;;;;;;;2.30;1.70;;;19.00;34.10;;;;;;10434713;28;20248;-72
2022/05/25 21:36:00;;;;;;;1.20;1.20;;;18.90;33.40;;;;;;10428440;28;20645;-72
2022/05/25 21:41:03;;;;;;;1.77;1.20;;;18.90;33.20;;;;;;10425873;28;20245;-72
2022/05/25 21:51:29;;;;;;;1.43;1.23;;;19.00;33.00;;;;;;10428670;28;20731;-72
2022/05/25 21:56:35;;;;;;;1.20;1.10;;;19.10;33.20;;;;;;10432519;28;20224;-72
2022/05/25 22:01:40;;;;;;;0.97;0.97;;;19.10;32.90;;;;;;10431274;28;20228;-72
2022/05/25 22:06:45;;;;;;;1.10;1.00;;;19.00;33.00;;;;;;10433566;28;20225;-72
2022/05/25 22:11:48;;;;;;;1.27;1.00;;;19.00;33.40;;;;;;10431242;28;20231;-73
2022/05/25 22:16:52;;;;;;;1.40;1.00;;;19.00;33.40;;;;;;10431152;28;20252;-72
2022/05/25 22:21:57;;;;;;;1.03;1.03;;;19.10;33.40;;;;;;10427634;28;20731;-72
2022/05/25 22:27:00;;;;;;;2.03;1.27;;;19.20;33.70;;;;;;10428033;28;20239;-72
2022/05/25 22:32:05;;;;;;;1.20;1.10;;;19.30;33.60;;;;;;10433113;28;20827;-72
2022/05/25 22:37:09;;;;;;;2.47;1.10;;;19.30;33.40;;;;;;10428565;28;20229;-72
2022/05/25 22:42:13;;;;;;;1.10;1.00;;;19.40;33.60;;;;;;10424483;28;20255;-72
2022/05/25 22:47:16;;;;;;;1.30;1.20;;;19.40;33.30;;;;;;10431691;28;20315;-72
2022/05/25 22:52:21;;;;;;;2.50;1.10;;;19.40;33.30;;;;;;10429468;28;20310;-72
2022/05/25 22:57:24;;;;;;;3.63;1.30;;;19.30;33.50;;;;;;10429532;28;20236;-72
2022/05/25 23:02:27;;;;;;;2.23;1.50;;;19.30;33.10;;;;;;10428388;28;20586;-72
2022/05/25 23:07:32;;;;;;;1.50;1.27;;;19.30;33.10;;;;;;10426890;28;20363;-72
2022/05/25 23:12:35;;;;;;;1.50;1.40;;;19.10;33.40;;;;;;10429433;28;20245;-72
2022/05/25 23:17:38;;;;;;;2.30;1.10;;;19.00;33.40;;;;;;10427911;28;20937;-72
2022/05/25 23:22:43;;;;;;;2.47;1.27;;;19.00;33.60;;;;;;10425685;28;20648;-71
2022/05/25 23:27:48;;;;;;;2.10;1.30;;;18.90;33.80;;;;;;10431921;28;20228;-72
2022/05/25 23:32:51;;;;;;;2.43;1.47;;;18.80;33.90;;;;;;10434412;28;20327;-72
2022/05/25 23:37:56;;;;;;;1.00;1.00;;;18.80;33.90;;;;;;10429132;28;20239;-72
2022/05/25 23:48:19;;;;;;;1.97;1.50;;;18.80;34.00;;;;;;10395798;28;20872;-72
2022/05/25 23:53:24;;;;;;;4.10;1.40;;;18.80;34.00;;;;;;10436198;28;20224;-72
2022/05/25 23:58:28;;;;;;;1.47;1.20;;;18.80;34.20;;;;;;10435254;28;20739;-72
